createdAt,value
2023-03-02T00:02:13.663Z,418.50
2023-03-02T00:04:45.810Z,414.50
2023-03-02T00:07:27.944Z,421.60
2023-03-02T00:09:55.858Z,414.60
2023-03-02T00:12:27.045Z,410.00
2023-03-02T00:14:55.362Z,412.00
2023-03-02T00:17:27.951Z,421.20
2023-03-02T00:20:11.244Z,444.80
2023-03-02T00:22:41.111Z,448.70
2023-03-02T00:25:10.016Z,432.90
2023-03-02T00:27:37.944Z,444.10
2023-03-02T00:30:07.477Z,403.00
2023-03-02T00:32:35.420Z,372.00
2023-03-02T00:35:04.509Z,360.40
2023-03-02T00:37:34.515Z,380.80
2023-03-02T00:40:06.307Z,391.30
2023-03-02T00:42:34.380Z,394.80
2023-03-02T00:45:04.799Z,385.20
2023-03-02T00:47:37.212Z,371.90
2023-03-02T00:50:06.746Z,361.80
2023-03-02T00:52:35.060Z,366.00
2023-03-02T00:55:02.952Z,366.30
2023-03-02T00:57:31.476Z,362.30
2023-03-02T00:59:59.984Z,358.20
2023-03-02T01:02:33.813Z,359.90
2023-03-02T01:05:01.971Z,341.50
2023-03-02T01:07:29.889Z,361.80
2023-03-02T01:09:57.985Z,369.40
2023-03-02T01:12:25.876Z,386.40
2023-03-02T01:14:54.916Z,385.50
2023-03-02T01:17:22.980Z,380.60
2023-03-02T01:19:51.721Z,395.00
2023-03-02T01:22:20.705Z,394.30
2023-03-02T01:24:49.025Z,408.90
2023-03-02T01:27:16.955Z,431.40
2023-03-02T01:29:45.302Z,453.20
2023-03-02T01:32:13.372Z,432.90
2023-03-02T01:34:41.430Z,431.50
2023-03-02T01:37:09.324Z,403.10
2023-03-02T01:39:37.347Z,381.60
2023-03-02T01:42:05.492Z,363.10
2023-03-02T01:44:39.886Z,368.40
2023-03-02T01:47:17.312Z,356.40
2023-03-02T01:50:05.222Z,367.90
2023-03-02T01:52:39.984Z,380.40
2023-03-02T01:55:12.020Z,389.50
2023-03-02T01:57:44.484Z,388.40
2023-03-02T02:00:36.698Z,394.90
2023-03-02T02:03:21.250Z,416.70
2023-03-02T02:08:28.802Z,351.10
2023-03-02T02:10:56.842Z,344.00
2023-03-02T02:13:25.087Z,333.90
2023-03-02T02:15:52.953Z,329.70
2023-03-02T02:18:20.898Z,312.40
2023-03-02T02:20:51.812Z,330.80
2023-03-02T02:23:33.767Z,333.70
2023-03-02T02:26:12.150Z,325.50
2023-03-02T02:28:45.016Z,310.80
2023-03-02T02:31:13.014Z,336.60
2023-03-02T02:33:46.066Z,319.10
2023-03-02T02:36:23.208Z,316.10
2023-03-02T02:38:55.956Z,310.80
2023-03-02T02:41:28.763Z,315.60
2023-03-02T02:43:57.206Z,324.70
2023-03-02T02:46:25.968Z,325.40
2023-03-02T02:48:54.458Z,316.00
2023-03-02T02:51:26.646Z,413.50
2023-03-02T02:54:02.724Z,346.00
2023-03-02T02:56:38.367Z,343.50
2023-03-02T02:59:22.852Z,341.00
2023-03-02T03:01:51.748Z,364.40
2023-03-02T03:04:26.797Z,350.10
2023-03-02T03:06:58.050Z,461.50
2023-03-02T03:09:27.581Z,380.70
2023-03-02T03:12:14.009Z,353.30
2023-03-02T03:14:43.406Z,337.90
2023-03-02T03:17:14.027Z,336.70
2023-03-02T03:19:55.217Z,352.90
2023-03-02T03:22:23.496Z,350.70
2023-03-02T03:24:51.749Z,335.90
2023-03-02T03:27:19.902Z,336.30
2023-03-02T03:29:48.463Z,317.40
2023-03-02T03:32:19.793Z,300.90
2023-03-02T03:34:48.494Z,290.90
2023-03-02T03:37:22.280Z,292.80
2023-03-02T03:39:51.134Z,295.00
2023-03-02T03:42:19.362Z,304.20
2023-03-02T03:44:47.695Z,305.50
2023-03-02T03:47:16.057Z,317.90
2023-03-02T03:49:44.604Z,304.90
2023-03-02T03:52:12.606Z,308.50
2023-03-02T03:54:40.747Z,303.50
2023-03-02T03:57:10.749Z,308.70
2023-03-02T03:59:38.822Z,295.70
2023-03-02T04:02:07.043Z,296.50
2023-03-02T04:04:37.943Z,295.40
2023-03-02T04:07:10.024Z,310.20
2023-03-02T04:09:39.410Z,279.30
2023-03-02T04:12:11.730Z,295.20
2023-03-02T04:14:42.396Z,282.30
2023-03-02T04:17:10.283Z,300.20
2023-03-02T04:19:42.338Z,299.40
2023-03-02T04:22:10.722Z,266.90
2023-03-02T04:24:38.655Z,242.40
2023-03-02T04:27:06.663Z,215.30
2023-03-02T04:29:37.003Z,197.50
2023-03-02T04:32:07.433Z,196.30
2023-03-02T04:34:37.744Z,159.40
2023-03-02T04:37:05.990Z,152.10
2023-03-02T04:39:34.219Z,157.90
2023-03-02T04:42:02.278Z,133.40
2023-03-02T04:44:30.280Z,132.10
2023-03-02T04:46:58.359Z,107.10
2023-03-02T04:49:26.390Z,110.20
2023-03-02T04:51:54.563Z,106.40
2023-03-02T04:54:26.923Z,107.60
2023-03-02T04:56:55.806Z,110.30
2023-03-02T04:59:27.258Z,99.10
2023-03-02T05:01:58.974Z,97.20
2023-03-02T05:04:28.719Z,99.00
2023-03-02T05:06:57.837Z,87.40
2023-03-02T05:09:31.057Z,82.30
2023-03-02T05:12:01.390Z,82.10
2023-03-02T05:14:30.247Z,87.90
2023-03-02T05:16:58.817Z,82.90
2023-03-02T05:19:26.798Z,82.50
2023-03-02T05:21:56.577Z,81.10
2023-03-02T05:24:24.991Z,80.40
2023-03-02T05:26:52.944Z,83.40
2023-03-02T05:29:20.900Z,77.30
2023-03-02T05:31:49.773Z,76.00
2023-03-02T05:34:18.255Z,82.90
2023-03-02T05:36:46.594Z,77.60
2023-03-02T05:39:14.580Z,73.00
2023-03-02T05:41:42.465Z,75.10
2023-03-02T05:44:12.193Z,75.40
2023-03-02T05:46:40.728Z,71.40
2023-03-02T05:49:08.842Z,76.10
2023-03-02T05:51:36.678Z,71.00
2023-03-02T05:54:04.691Z,80.50
2023-03-02T05:56:33.182Z,71.70
2023-03-02T05:59:01.470Z,66.50
2023-03-02T06:01:29.338Z,61.40
2023-03-02T06:03:57.208Z,70.00
2023-03-02T06:06:25.225Z,70.20
2023-03-02T06:08:53.075Z,67.80
2023-03-02T06:11:21.096Z,60.80
2023-03-02T06:13:49.071Z,56.50
2023-03-02T06:16:17.142Z,51.10
2023-03-02T06:18:44.920Z,52.80
2023-03-02T06:21:13.111Z,48.10
2023-03-02T06:23:41.050Z,48.90
2023-03-02T06:26:10.882Z,47.40
2023-03-02T06:28:51.503Z,53.40
2023-03-02T06:31:21.872Z,50.20
2023-03-02T06:33:50.244Z,47.60
2023-03-02T06:36:18.442Z,42.30
2023-03-02T06:38:46.564Z,43.20
2023-03-02T06:41:14.804Z,44.90
2023-03-02T06:43:43.013Z,38.90
2023-03-02T06:46:11.956Z,43.70
2023-03-02T06:48:40.046Z,41.30
2023-03-02T06:51:08.608Z,42.00
2023-03-02T06:53:36.751Z,42.50
2023-03-02T06:56:05.255Z,43.60
2023-03-02T06:58:33.289Z,42.60
2023-03-02T07:01:01.451Z,42.20
2023-03-02T07:03:29.641Z,43.20
2023-03-02T07:05:57.732Z,45.10
2023-03-02T07:08:26.101Z,41.20
2023-03-02T07:10:54.045Z,41.50
2023-03-02T07:13:22.080Z,40.00
2023-03-02T07:15:49.851Z,41.10
2023-03-02T07:18:17.750Z,42.00
2023-03-02T07:20:45.672Z,38.40
2023-03-02T07:23:13.568Z,39.80
2023-03-02T07:25:41.587Z,39.60
2023-03-02T07:28:09.523Z,38.00
2023-03-02T07:30:37.597Z,41.40
2023-03-02T07:33:05.533Z,36.60
2023-03-02T07:35:33.487Z,37.20
2023-03-02T07:38:01.461Z,34.10
2023-03-02T07:40:29.399Z,35.20
2023-03-02T07:42:57.543Z,36.70
2023-03-02T07:45:26.431Z,34.50
2023-03-02T07:47:54.330Z,32.90
2023-03-02T07:50:22.401Z,39.00
2023-03-02T07:52:50.233Z,37.60
2023-03-02T07:55:18.072Z,42.00
2023-03-02T07:57:46.001Z,34.40
2023-03-02T08:00:14.812Z,32.80
2023-03-02T08:02:43.173Z,35.80
2023-03-02T08:05:12.214Z,36.90
2023-03-02T08:07:41.054Z,32.90
2023-03-02T08:10:10.621Z,35.20
2023-03-02T08:12:38.520Z,34.90
2023-03-02T08:15:07.300Z,35.30
2023-03-02T08:17:35.362Z,38.30
2023-03-02T08:20:04.707Z,35.00
2023-03-02T08:22:32.606Z,38.90
2023-03-02T08:25:00.557Z,37.10
2023-03-02T08:27:28.611Z,38.80
2023-03-02T08:29:56.985Z,35.30
2023-03-02T08:32:25.209Z,40.50
2023-03-02T08:34:53.204Z,37.30
2023-03-02T08:37:21.197Z,39.60
2023-03-02T08:39:49.607Z,38.10
2023-03-02T08:42:17.925Z,36.60
2023-03-02T08:44:45.895Z,33.30
2023-03-02T08:47:13.817Z,36.50
2023-03-02T08:49:41.865Z,34.00
2023-03-02T08:52:09.893Z,36.60
2023-03-02T08:54:40.708Z,37.20
2023-03-02T08:57:11.605Z,34.90
2023-03-02T08:59:40.065Z,35.60
2023-03-02T09:02:11.003Z,31.40
2023-03-02T09:04:39.395Z,33.00
2023-03-02T09:07:07.523Z,33.40
2023-03-02T09:09:35.657Z,30.80
2023-03-02T09:12:03.939Z,35.90
2023-03-02T09:14:31.768Z,31.40
2023-03-02T09:16:59.817Z,30.30
2023-03-02T09:19:27.906Z,29.90
2023-03-02T09:21:55.839Z,31.50
2023-03-02T09:24:23.859Z,28.70
2023-03-02T09:26:51.905Z,31.80
2023-03-02T09:29:19.911Z,29.80
2023-03-02T09:31:47.826Z,34.50
2023-03-02T09:34:15.812Z,32.90
2023-03-02T09:36:43.613Z,33.40
2023-03-02T09:39:12.587Z,32.30
2023-03-02T09:41:49.878Z,33.60
2023-03-02T09:44:38.652Z,38.60
2023-03-02T09:47:36.045Z,37.00
2023-03-02T09:50:16.071Z,37.50
2023-03-02T09:52:52.389Z,39.60
2023-03-02T09:55:26.011Z,33.10
2023-03-02T09:57:56.189Z,36.50
2023-03-02T10:00:28.542Z,37.80
2023-03-02T10:03:16.619Z,31.70
2023-03-02T10:05:51.362Z,34.10
2023-03-02T10:08:26.781Z,32.10
2023-03-02T10:10:58.122Z,33.90
2023-03-02T10:13:36.260Z,33.40
2023-03-02T10:16:13.071Z,36.50
2023-03-02T10:18:49.796Z,33.10
2023-03-02T10:21:27.072Z,38.00
2023-03-02T10:24:11.459Z,33.00
2023-03-02T10:26:44.831Z,31.00
2023-03-02T10:29:27.954Z,44.10
2023-03-02T10:32:21.500Z,36.10
2023-03-02T10:34:51.358Z,30.80
2023-03-02T10:37:28.536Z,30.10
2023-03-02T10:39:56.782Z,32.60
2023-03-02T10:42:32.633Z,33.40
2023-03-02T10:45:24.020Z,36.70
2023-03-02T10:48:06.869Z,31.10
2023-03-02T10:50:35.346Z,33.00
2023-03-02T10:53:06.308Z,36.80
2023-03-02T10:55:35.016Z,32.70
2023-03-02T10:58:07.265Z,32.30
2023-03-02T11:00:36.785Z,46.70
2023-03-02T11:03:20.285Z,36.20
2023-03-02T11:05:49.263Z,36.20
2023-03-02T11:08:18.405Z,33.90
2023-03-02T11:10:59.766Z,39.40
2023-03-02T11:13:38.698Z,171.30
2023-03-02T11:16:19.218Z,46.90
2023-03-02T11:18:55.511Z,40.70
2023-03-02T11:21:44.224Z,36.60
2023-03-02T11:24:21.485Z,34.30
2023-03-02T11:26:54.388Z,32.40
2023-03-02T11:29:35.633Z,32.60
2023-03-02T11:32:27.487Z,33.00
2023-03-02T11:35:02.966Z,36.90
2023-03-02T11:37:48.166Z,35.20
2023-03-02T11:40:24.852Z,33.50
2023-03-02T11:42:56.775Z,37.80
2023-03-02T11:45:28.492Z,35.80
2023-03-02T11:48:26.619Z,34.30
2023-03-02T11:50:57.922Z,35.70
2023-03-02T11:53:34.026Z,38.50
2023-03-02T11:56:02.071Z,36.50
2023-03-02T11:58:32.882Z,37.20
2023-03-02T12:01:02.032Z,36.40
2023-03-02T12:03:32.772Z,41.50
2023-03-02T12:06:05.245Z,38.80
2023-03-02T12:08:38.720Z,38.50
2023-03-02T12:11:06.601Z,35.80
2023-03-02T12:13:38.659Z,36.80
2023-03-02T12:16:35.853Z,37.80
2023-03-02T12:19:16.493Z,38.80
2023-03-02T12:21:56.995Z,39.30
2023-03-02T12:24:26.366Z,43.00
2023-03-02T12:27:25.807Z,35.60
2023-03-02T12:30:11.279Z,42.10
2023-03-02T12:32:39.401Z,48.00
2023-03-02T12:35:07.372Z,42.60
2023-03-02T12:38:05.462Z,36.60
2023-03-02T12:40:51.862Z,39.50
2023-03-02T12:44:06.228Z,37.60
2023-03-02T12:46:37.359Z,27.10
2023-03-02T12:49:20.251Z,40.40
2023-03-02T12:52:04.017Z,35.50
2023-03-02T12:54:34.589Z,38.40
2023-03-02T12:57:14.080Z,36.10
2023-03-02T12:59:42.946Z,40.20
2023-03-02T13:02:23.272Z,37.80
2023-03-02T13:04:55.491Z,38.40
2023-03-02T13:07:28.843Z,41.50
2023-03-02T13:09:58.857Z,40.10
2023-03-02T13:12:29.408Z,38.30
2023-03-02T13:14:59.153Z,36.20
2023-03-02T13:17:31.271Z,35.50
2023-03-02T13:20:01.721Z,38.50
2023-03-02T13:22:30.256Z,37.20
2023-03-02T13:25:02.158Z,35.90
2023-03-02T13:27:31.892Z,35.60
2023-03-02T13:30:23.883Z,40.80
2023-03-02T13:32:54.545Z,39.30
2023-03-02T13:35:26.726Z,40.70
2023-03-02T13:38:04.916Z,36.80
2023-03-02T13:40:47.789Z,38.20
2023-03-02T13:43:31.205Z,41.70
2023-03-02T13:46:00.470Z,41.90
2023-03-02T13:48:29.918Z,65.80
2023-03-02T13:51:01.585Z,46.70
2023-03-02T13:53:34.757Z,45.40
2023-03-02T13:56:03.932Z,46.30
2023-03-02T13:58:38.480Z,37.60
2023-03-02T14:01:07.718Z,44.20
2023-03-02T14:03:35.656Z,39.60
2023-03-02T14:06:03.572Z,36.10
2023-03-02T14:08:32.128Z,38.80
2023-03-02T14:11:02.639Z,42.20
2023-03-02T14:13:51.695Z,34.60
2023-03-02T14:16:20.177Z,36.00
2023-03-02T14:18:51.110Z,36.50
2023-03-02T14:21:24.382Z,39.60
2023-03-02T14:23:54.018Z,44.20
2023-03-02T14:26:54.423Z,55.30
2023-03-02T14:29:34.684Z,47.10
2023-03-02T14:32:04.436Z,39.90
2023-03-02T14:34:36.047Z,39.30
2023-03-02T14:37:10.718Z,36.90
2023-03-02T14:39:46.414Z,42.40
2023-03-02T14:42:17.029Z,43.50
2023-03-02T14:44:48.923Z,44.00
2023-03-02T14:47:19.529Z,43.70
2023-03-02T14:49:49.461Z,43.20
2023-03-02T14:52:28.331Z,45.80
2023-03-02T14:54:59.686Z,42.00
2023-03-02T14:57:30.447Z,39.40
2023-03-02T15:00:01.343Z,43.40
2023-03-02T15:02:29.383Z,41.90
2023-03-02T15:04:57.849Z,45.30
2023-03-02T15:07:28.098Z,44.90
2023-03-02T15:09:58.058Z,46.10
2023-03-02T15:12:26.427Z,46.40
2023-03-02T15:14:54.353Z,45.50
2023-03-02T15:17:22.276Z,46.30
2023-03-02T15:19:50.493Z,46.40
2023-03-02T15:22:18.505Z,349.90
2023-03-02T15:24:46.600Z,99.70
2023-03-02T15:27:14.624Z,59.80
2023-03-02T15:29:44.949Z,57.80
2023-03-02T15:32:13.090Z,46.90
2023-03-02T15:34:41.068Z,43.20
2023-03-02T15:37:11.671Z,42.70
2023-03-02T15:39:40.343Z,43.50
2023-03-02T15:42:08.260Z,44.00
2023-03-02T15:44:36.360Z,49.30
2023-03-02T15:47:04.477Z,54.90
2023-03-02T15:49:32.969Z,48.60
2023-03-02T15:52:00.983Z,52.90
2023-03-02T15:54:29.521Z,57.00
2023-03-02T15:56:57.606Z,55.30
2023-03-02T15:59:27.719Z,60.10
2023-03-02T16:01:59.820Z,54.40
2023-03-02T16:04:30.402Z,50.00
2023-03-02T16:06:58.903Z,54.80
2023-03-02T16:09:29.095Z,56.40
2023-03-02T16:11:57.688Z,53.10
2023-03-02T16:14:26.062Z,60.90
2023-03-02T16:16:54.089Z,54.20
2023-03-02T16:19:22.095Z,58.60
2023-03-02T16:21:50.105Z,55.90
2023-03-02T16:24:18.240Z,60.70
2023-03-02T16:26:46.280Z,56.50
2023-03-02T16:29:14.602Z,54.70
2023-03-02T16:31:46.169Z,51.50
2023-03-02T16:34:14.662Z,53.60
2023-03-02T16:36:42.992Z,54.20
2023-03-02T16:39:12.117Z,53.20
2023-03-02T16:41:43.196Z,74.80
2023-03-02T16:44:13.486Z,58.50
2023-03-02T16:46:43.708Z,55.90
2023-03-02T16:49:13.526Z,67.90
2023-03-02T16:51:42.071Z,106.70
2023-03-02T16:54:14.484Z,188.30
2023-03-02T16:56:45.370Z,144.90
2023-03-02T16:59:13.480Z,269.60
2023-03-02T17:01:41.537Z,152.60
2023-03-02T17:04:09.791Z,155.20
2023-03-02T17:06:38.919Z,99.60
2023-03-02T17:09:06.999Z,312.50
2023-03-02T17:11:35.053Z,214.50
2023-03-02T17:14:02.960Z,71.70
2023-03-02T17:16:30.969Z,290.20
2023-03-02T17:18:59.930Z,225.80
2023-03-02T17:21:27.862Z,109.50
2023-03-02T17:23:55.893Z,964.10
2023-03-02T17:26:23.746Z,388.60
2023-03-02T17:28:51.632Z,117.90
2023-03-02T17:31:19.468Z,69.60
2023-03-02T17:33:47.485Z,55.30
2023-03-02T17:36:15.871Z,56.90
2023-03-02T17:38:43.920Z,58.50
2023-03-02T17:41:12.088Z,99.20
2023-03-02T17:43:41.881Z,134.20
2023-03-02T17:46:14.765Z,181.90
2023-03-02T17:48:43.266Z,109.10
2023-03-02T17:51:11.911Z,133.90
2023-03-02T17:53:39.842Z,92.50
2023-03-02T17:56:07.949Z,60.10
2023-03-02T17:58:44.648Z,60.80
2023-03-02T18:01:15.991Z,61.70
2023-03-02T18:03:45.224Z,57.60
2023-03-02T18:06:14.741Z,58.10
2023-03-02T18:08:42.685Z,62.70
2023-03-02T18:11:10.717Z,63.70
2023-03-02T18:13:40.222Z,53.40
2023-03-02T18:16:08.878Z,52.80
2023-03-02T18:18:36.985Z,52.10
2023-03-02T18:21:05.946Z,51.50
2023-03-02T18:23:34.090Z,51.80
2023-03-02T18:26:02.150Z,50.00
2023-03-02T18:28:30.187Z,53.00
2023-03-02T18:30:58.092Z,49.00
2023-03-02T18:33:26.539Z,50.90
2023-03-02T18:35:54.557Z,63.30
2023-03-02T18:38:22.781Z,82.20
2023-03-02T18:40:50.678Z,116.30
2023-03-02T18:43:18.714Z,90.90
2023-03-02T18:45:46.702Z,64.20
2023-03-02T18:48:14.562Z,58.30
2023-03-02T18:50:43.747Z,60.90
2023-03-02T18:53:12.932Z,58.90
2023-03-02T18:55:41.380Z,49.60
2023-03-02T18:58:17.060Z,60.00
2023-03-02T19:00:46.341Z,61.50
2023-03-02T19:03:16.813Z,58.70
2023-03-02T19:05:45.498Z,58.00
2023-03-02T19:08:13.418Z,63.40
2023-03-02T19:10:42.446Z,55.60
2023-03-02T19:13:11.761Z,55.70
2023-03-02T19:15:40.475Z,52.70
2023-03-02T19:18:09.819Z,50.40
2023-03-02T19:20:37.697Z,76.70
2023-03-02T19:23:05.590Z,59.30
2023-03-02T19:25:34.006Z,68.10
2023-03-02T19:28:02.253Z,60.90
2023-03-02T19:30:30.360Z,56.30
2023-03-02T19:32:58.266Z,55.30
2023-03-02T19:35:27.848Z,58.60
2023-03-02T19:37:56.492Z,68.40
2023-03-02T19:40:27.182Z,61.80
2023-03-02T19:42:57.131Z,60.90
2023-03-02T19:45:29.385Z,64.00
2023-03-02T19:47:58.406Z,60.40
2023-03-02T19:50:27.966Z,61.20
2023-03-02T19:52:57.150Z,66.10
2023-03-02T19:55:25.845Z,97.30
2023-03-02T19:58:00.202Z,95.90
2023-03-02T20:00:30.749Z,81.80
2023-03-02T20:02:59.227Z,83.70
2023-03-02T20:05:27.945Z,108.90
2023-03-02T20:07:56.022Z,96.30
2023-03-02T20:10:37.424Z,146.60
2023-03-02T20:13:06.465Z,287.80
2023-03-02T20:15:38.690Z,163.70
2023-03-02T20:18:09.472Z,346.20
2023-03-02T20:20:37.605Z,172.10
2023-03-02T20:23:05.537Z,140.50
2023-03-02T20:25:34.844Z,113.60
2023-03-02T20:28:05.672Z,128.50
2023-03-02T20:30:38.038Z,113.10
2023-03-02T20:33:07.684Z,109.20
2023-03-02T20:35:40.144Z,84.80
2023-03-02T20:38:13.188Z,144.20
2023-03-02T20:40:41.641Z,183.60
2023-03-02T20:43:09.488Z,108.50
2023-03-02T20:45:37.489Z,89.60
2023-03-02T20:48:05.594Z,101.00
2023-03-02T20:50:35.237Z,83.70
2023-03-02T20:53:05.570Z,65.00
2023-03-02T20:55:34.481Z,77.70
2023-03-02T20:58:02.822Z,71.30
2023-03-02T21:00:32.998Z,72.70
2023-03-02T21:03:00.876Z,64.90
2023-03-02T21:05:30.907Z,63.70
2023-03-02T21:07:59.536Z,62.70
2023-03-02T21:10:32.176Z,63.40
2023-03-02T21:13:00.324Z,107.90
2023-03-02T21:15:28.925Z,67.70
2023-03-02T21:17:59.396Z,75.80
2023-03-02T21:20:32.060Z,74.00
2023-03-02T21:22:59.884Z,72.90
2023-03-02T21:25:28.371Z,85.70
2023-03-02T21:27:56.868Z,88.80
2023-03-02T21:30:29.376Z,103.90
2023-03-02T21:32:57.657Z,101.40
2023-03-02T21:35:25.959Z,105.00
2023-03-02T21:37:58.087Z,113.70
2023-03-02T21:40:31.898Z,81.90
2023-03-02T21:43:01.860Z,81.10
2023-03-02T21:45:29.793Z,86.50
2023-03-02T21:47:57.842Z,80.70
2023-03-02T21:50:29.616Z,81.30
2023-03-02T21:53:01.341Z,90.70
2023-03-02T21:55:30.913Z,78.20
2023-03-02T21:57:59.313Z,87.80
2023-03-02T22:00:37.502Z,93.40
2023-03-02T22:03:06.650Z,94.50
2023-03-02T22:05:34.517Z,85.10
2023-03-02T22:08:02.592Z,111.50
2023-03-02T22:10:32.654Z,154.50
2023-03-02T22:13:17.729Z,125.30
2023-03-02T22:15:47.706Z,67.00
2023-03-02T22:18:19.484Z,92.80
2023-03-02T22:20:50.096Z,87.30
2023-03-02T22:23:21.286Z,104.00
2023-03-02T22:26:14.718Z,87.80
2023-03-02T22:28:43.129Z,81.80
2023-03-02T22:31:20.169Z,84.00
2023-03-02T22:33:49.676Z,89.90
2023-03-02T22:36:23.503Z,83.80
2023-03-02T22:38:51.744Z,96.10
2023-03-02T22:41:20.519Z,82.60
2023-03-02T22:43:49.628Z,83.10
2023-03-02T22:46:20.721Z,85.60
2023-03-02T22:48:52.839Z,84.10
2023-03-02T22:51:28.015Z,73.80
2023-03-02T22:53:58.941Z,87.40
2023-03-02T22:56:29.662Z,78.20
2023-03-02T22:59:21.899Z,80.70
2023-03-02T23:01:50.566Z,90.00
2023-03-02T23:04:18.632Z,81.00
2023-03-02T23:06:50.349Z,81.10
2023-03-02T23:09:24.957Z,71.20
2023-03-02T23:11:56.600Z,74.00
2023-03-02T23:14:24.928Z,74.10
2023-03-02T23:16:58.370Z,64.40
2023-03-02T23:19:30.837Z,71.50
2023-03-02T23:21:58.836Z,68.70
2023-03-02T23:24:27.347Z,63.30
2023-03-02T23:26:55.512Z,69.20
2023-03-02T23:29:23.594Z,62.40
2023-03-02T23:31:51.761Z,69.80
2023-03-02T23:34:20.446Z,66.40
2023-03-02T23:36:48.407Z,79.10
2023-03-02T23:39:17.624Z,69.90
2023-03-02T23:41:45.700Z,102.10
2023-03-02T23:44:13.598Z,125.30
2023-03-02T23:46:41.500Z,77.30
2023-03-02T23:49:09.521Z,72.90
2023-03-02T23:51:37.466Z,68.60
2023-03-02T23:54:05.277Z,71.30
2023-03-02T23:56:33.243Z,72.10
2023-03-02T23:59:02.451Z,64.80
